createdAt,value
2019-04-04T02:47:57.545Z,10.60
2019-04-04T02:50:27.848Z,10.60
2019-04-04T02:52:59.137Z,10.50
2019-04-04T02:55:30.964Z,10.50
2019-04-04T02:58:01.490Z,10.50
2019-04-04T03:00:31.784Z,10.50
2019-04-04T03:03:02.189Z,10.50
2019-04-04T03:05:32.490Z,10.40
2019-04-04T03:08:04.387Z,10.50
2019-04-04T03:10:34.935Z,10.50
2019-04-04T03:13:05.366Z,10.50
2019-04-04T03:15:35.685Z,10.40
2019-04-04T03:18:06.059Z,10.40
2019-04-04T03:20:36.374Z,10.40
2019-04-04T03:23:06.704Z,10.40
2019-04-04T03:25:37.006Z,10.40
2019-04-04T03:28:07.377Z,10.30
2019-04-04T03:30:37.695Z,10.40
2019-04-04T03:33:08.025Z,10.30
2019-04-04T03:35:38.342Z,10.30
2019-04-04T03:38:10.718Z,10.30
2019-04-04T05:51:55.372Z,10.10
2019-04-04T05:54:33.654Z,10.10
2019-04-04T05:57:06.798Z,10.10
2019-04-04T05:59:56.207Z,10.20
2019-04-04T06:02:28.019Z,10.20
2019-04-04T06:04:58.431Z,10.30
2019-04-04T06:07:28.827Z,10.30
2019-04-04T06:09:59.299Z,10.40
2019-04-04T06:12:29.603Z,10.40
2019-04-04T06:15:00.513Z,10.40
2019-04-04T06:17:31.362Z,10.40
2019-04-04T06:20:01.763Z,10.50
2019-04-04T06:22:32.055Z,10.60
2019-04-04T06:25:02.378Z,10.50
2019-04-04T06:27:33.642Z,10.60
2019-04-04T06:30:04.218Z,10.60
2019-04-04T06:32:34.577Z,10.60
2019-04-04T06:35:05.242Z,10.70
2019-04-04T06:37:38.418Z,10.80
2019-04-04T06:40:08.819Z,10.90
2019-04-04T06:42:39.127Z,10.90
2019-04-04T06:45:09.630Z,10.90
2019-04-04T06:47:39.921Z,11.00
2019-04-04T06:50:10.663Z,10.90
2019-04-04T06:52:40.975Z,10.90
2019-04-04T06:55:11.426Z,11.00
2019-04-04T06:57:42.689Z,11.10
2019-04-04T07:00:15.740Z,11.20
2019-04-04T07:02:47.294Z,11.20
2019-04-04T07:05:17.287Z,11.30
2019-04-04T07:07:47.584Z,11.30
2019-04-04T07:10:20.961Z,11.40
2019-04-04T07:12:49.890Z,11.50
2019-04-04T07:15:20.200Z,11.50
2019-04-04T07:17:50.544Z,11.70
2019-04-04T07:20:20.877Z,11.80
2019-04-04T07:22:51.249Z,11.90
2019-04-04T07:25:21.597Z,12.00
2019-04-04T07:27:51.921Z,11.90
2019-04-04T07:30:22.283Z,11.90
2019-04-04T07:32:52.553Z,12.00
2019-04-04T07:35:22.877Z,12.10
2019-04-04T07:37:57.073Z,12.20
2019-04-04T07:40:25.172Z,12.40
2019-04-04T07:42:55.469Z,12.40
2019-04-04T07:45:26.808Z,12.60
2019-04-04T07:47:57.183Z,12.60
2019-04-04T07:50:27.506Z,12.50
2019-04-04T07:52:57.796Z,12.70
2019-04-04T07:55:28.128Z,12.80
2019-04-04T07:57:58.437Z,13.00
2019-04-04T08:00:28.793Z,13.10
2019-04-04T08:02:59.106Z,13.10
2019-04-04T08:05:29.425Z,13.20
2019-04-04T08:07:59.769Z,13.40
2019-04-04T08:10:30.305Z,13.50
2019-04-04T08:13:00.667Z,13.70
2019-04-04T08:15:31.303Z,13.90
2019-04-04T08:18:01.627Z,14.30
2019-04-04T08:20:32.221Z,14.70
2019-04-04T08:23:02.583Z,14.80
2019-04-04T08:25:32.895Z,15.10
2019-04-04T08:28:03.194Z,15.40
2019-04-04T08:30:33.550Z,15.50
2019-04-04T08:33:03.864Z,15.70
2019-04-04T08:35:34.197Z,15.90
2019-04-04T08:38:04.487Z,16.00
2019-04-04T08:40:34.875Z,16.40
2019-04-04T08:43:05.169Z,16.50
2019-04-04T08:45:35.515Z,16.90
2019-04-04T08:48:05.828Z,17.20
2019-04-04T08:50:36.173Z,17.10
2019-04-04T08:53:06.467Z,17.40
2019-04-04T08:55:37.079Z,17.30
2019-04-04T08:58:07.514Z,17.60
2019-04-04T09:00:37.825Z,17.90
2019-04-04T09:03:08.225Z,18.30
2019-04-04T09:05:38.575Z,18.20
2019-04-04T09:08:08.886Z,18.60
2019-04-04T09:10:39.231Z,18.80
2019-04-04T09:13:09.555Z,18.90
2019-04-04T09:15:39.955Z,19.20
2019-04-04T09:18:11.228Z,19.90
2019-04-04T09:20:41.568Z,19.60
2019-04-04T09:23:11.879Z,19.90
2019-04-04T09:25:42.203Z,20.40
2019-04-04T09:28:12.494Z,20.40
2019-04-04T09:30:42.818Z,21.00
2019-04-04T09:33:13.114Z,20.70
2019-04-04T09:35:43.461Z,21.00
2019-04-04T09:38:13.829Z,21.80
2019-04-04T09:40:44.241Z,21.10
2019-04-04T09:43:14.556Z,21.30
2019-04-04T09:45:44.896Z,21.90
2019-04-04T09:48:15.255Z,22.10
2019-04-04T09:50:45.561Z,22.60
2019-04-04T09:53:15.880Z,22.50
2019-04-04T09:55:46.225Z,22.50
2019-04-04T09:58:16.597Z,22.90
2019-04-04T10:00:48.225Z,23.50
2019-04-04T10:03:18.588Z,23.10
2019-04-04T10:05:48.995Z,23.80
2019-04-04T10:08:19.313Z,24.10
2019-04-04T10:10:49.659Z,24.00
2019-04-04T10:13:20.001Z,24.10
2019-04-04T10:15:50.365Z,23.70
2019-04-04T10:18:20.700Z,24.30
2019-04-04T10:20:51.043Z,24.80
2019-04-04T10:23:21.433Z,25.30
2019-04-04T10:25:51.755Z,24.90
2019-04-04T10:28:23.509Z,24.70
2019-04-04T10:30:53.930Z,24.90
2019-04-04T10:33:24.268Z,25.20
2019-04-04T10:35:54.561Z,25.60
2019-04-04T10:38:24.926Z,25.20
2019-04-04T10:40:55.300Z,25.50
2019-04-04T10:43:25.685Z,26.30
2019-04-04T10:45:56.010Z,26.20
2019-04-04T10:48:26.398Z,25.90
2019-04-04T10:50:56.732Z,26.20
2019-04-04T10:53:27.092Z,26.40
2019-04-04T10:55:57.390Z,26.50
2019-04-04T10:58:27.753Z,27.20
2019-04-04T11:00:58.079Z,27.30
2019-04-04T11:03:28.413Z,26.90
2019-04-04T11:05:58.786Z,26.50
2019-04-04T11:08:29.164Z,26.70
2019-04-04T11:10:59.486Z,27.20
2019-04-04T11:13:33.867Z,27.40
2019-04-04T11:16:01.789Z,27.20
2019-04-04T11:18:32.124Z,26.30
2019-04-04T11:21:02.462Z,26.30
2019-04-04T11:23:32.871Z,26.20
2019-04-04T11:26:04.212Z,26.20
2019-04-04T11:28:34.593Z,26.80
2019-04-04T11:31:04.891Z,26.80
2019-04-04T11:33:35.263Z,26.80
2019-04-04T11:36:06.638Z,27.10
2019-04-04T11:38:36.977Z,27.40
2019-04-04T11:41:07.338Z,27.90
2019-04-04T11:43:37.701Z,28.10
2019-04-04T11:48:37.726Z,27.90
2019-04-04T11:51:08.024Z,27.70
2019-04-04T11:53:38.347Z,28.00
2019-04-04T11:56:08.727Z,27.60
2019-04-04T11:58:39.063Z,27.10
2019-04-04T12:01:11.404Z,26.50
2019-04-04T12:03:41.761Z,26.60
2019-04-04T12:06:12.083Z,26.40
2019-04-04T12:08:42.438Z,26.30
2019-04-04T12:11:12.782Z,25.80
2019-04-04T12:13:43.156Z,26.00
2019-04-04T12:16:13.536Z,26.10
2019-04-04T12:18:43.913Z,26.00
2019-04-04T12:21:15.317Z,25.30
2019-04-04T12:23:45.668Z,25.30
2019-04-04T12:26:16.996Z,25.30
2019-04-04T12:28:47.335Z,25.40
2019-04-04T12:31:17.674Z,24.90
2019-04-04T12:33:48.014Z,24.70
2019-04-04T12:36:24.435Z,24.60
2019-04-04T12:38:50.430Z,24.60
2019-04-04T12:41:20.748Z,24.40
2019-04-04T12:43:51.152Z,24.60
2019-04-04T12:46:21.475Z,24.50
2019-04-04T12:48:51.862Z,24.60
2019-04-04T12:51:22.188Z,24.90
2019-04-04T12:53:52.579Z,24.60
2019-04-04T12:56:23.048Z,24.20
2019-04-04T12:58:53.461Z,24.20
2019-04-04T13:01:23.740Z,24.10
2019-04-04T13:03:54.102Z,24.00
2019-04-04T13:06:24.405Z,24.40
2019-04-04T13:08:54.813Z,24.60
2019-04-04T13:11:25.129Z,25.00
2019-04-04T13:13:55.523Z,25.40
2019-04-04T13:16:25.831Z,25.50
2019-04-04T13:18:56.280Z,25.00
2019-04-04T13:21:26.637Z,24.60
2019-04-04T13:23:57.001Z,24.40
2019-04-04T13:26:27.401Z,24.80
2019-04-04T13:28:57.754Z,24.80
2019-04-04T13:31:28.084Z,24.90
2019-04-04T13:33:58.459Z,25.00
2019-04-04T13:36:28.802Z,25.10
2019-04-04T13:38:59.199Z,25.00
2019-04-04T13:41:29.518Z,25.30
2019-04-04T13:43:59.860Z,25.40
2019-04-04T13:46:30.210Z,25.10
2019-04-04T13:49:00.622Z,24.60
2019-04-04T13:51:30.929Z,24.10
2019-04-04T13:54:01.266Z,24.60
2019-04-04T13:56:31.598Z,24.40
2019-04-04T13:59:05.525Z,24.40
2019-04-04T14:01:33.875Z,24.60
2019-04-04T14:04:04.450Z,24.40
2019-04-04T14:06:34.759Z,24.00
2019-04-04T14:09:07.753Z,23.90
2019-04-04T14:11:41.004Z,23.90
2019-04-04T14:14:10.120Z,23.70
2019-04-04T14:16:40.472Z,23.60
2019-04-04T14:19:10.814Z,23.60
2019-04-04T14:21:41.164Z,23.70
2019-04-04T14:24:14.028Z,23.70
2019-04-04T14:26:46.021Z,23.40
2019-04-04T14:29:26.835Z,23.10
2019-04-04T15:12:31.111Z,21.50
2019-04-04T15:15:26.184Z,21.40
2019-04-04T15:17:55.926Z,21.50
2019-04-04T15:20:26.278Z,21.60
2019-04-04T15:22:56.698Z,21.60
2019-04-04T15:25:27.032Z,21.60
2019-04-04T15:27:57.546Z,21.50
2019-04-04T15:30:27.877Z,21.40
2019-04-04T15:32:58.207Z,21.20
2019-04-04T15:35:28.561Z,21.20
2019-04-04T15:37:59.025Z,21.10
2019-04-04T15:40:29.318Z,21.00
2019-04-04T15:42:59.687Z,21.10
2019-04-04T15:45:30.034Z,21.20
2019-04-04T15:48:00.370Z,21.30
2019-04-04T15:50:30.769Z,21.30
2019-04-04T15:53:01.170Z,21.40
2019-04-04T15:55:31.501Z,21.40
2019-04-04T15:58:01.935Z,21.30
2019-04-04T16:00:32.300Z,21.20
2019-04-04T16:03:02.922Z,21.10
2019-04-04T16:05:34.340Z,20.90
2019-04-04T16:08:04.796Z,20.90
2019-04-04T16:10:35.098Z,20.80
2019-04-04T16:13:05.656Z,20.80
2019-04-04T16:15:36.086Z,20.80
2019-04-04T16:18:06.471Z,20.80
2019-04-04T16:20:36.822Z,20.70
2019-04-04T16:23:07.125Z,20.70
2019-04-04T16:25:37.547Z,20.60
2019-04-04T16:28:07.894Z,20.50
2019-04-04T16:30:38.208Z,20.40
2019-04-04T16:33:08.607Z,20.30
2019-04-04T16:35:38.922Z,20.20
2019-04-04T16:38:09.268Z,20.20
2019-04-04T16:40:39.604Z,20.10
2019-04-04T16:43:09.959Z,20.00
2019-04-04T16:45:40.269Z,19.90
2019-04-04T16:48:10.626Z,19.80
2019-04-04T16:50:40.952Z,19.70
2019-04-04T16:53:11.359Z,19.60
2019-04-04T16:55:41.669Z,19.60
2019-04-04T16:58:12.032Z,19.50
2019-04-04T17:00:42.394Z,19.40
2019-04-04T17:03:12.783Z,19.50
2019-04-04T17:05:43.097Z,19.40
2019-04-04T17:08:13.538Z,19.40
2019-04-04T17:10:43.908Z,19.30
2019-04-04T17:13:14.273Z,19.30
2019-04-04T17:15:44.627Z,19.30
2019-04-04T17:18:15.068Z,19.20
2019-04-04T17:20:45.488Z,19.20
2019-04-04T17:23:15.998Z,19.00
2019-04-04T17:25:46.422Z,19.00
2019-04-04T17:28:17.046Z,18.90
2019-04-04T17:30:47.456Z,18.80
2019-04-04T17:33:18.197Z,18.80
2019-04-04T17:35:48.669Z,18.80
2019-04-04T17:38:19.336Z,18.60
2019-04-04T17:40:49.685Z,18.60
2019-04-04T17:43:20.056Z,18.50
2019-04-04T17:45:51.648Z,18.50
2019-04-04T17:48:22.202Z,18.40
2019-04-04T17:50:52.514Z,18.40
2019-04-04T17:53:22.876Z,18.20
2019-04-04T17:55:54.912Z,18.20
2019-04-04T17:58:25.367Z,18.20
2019-04-04T18:00:55.889Z,18.10
2019-04-04T18:03:26.329Z,18.10
2019-04-04T18:05:56.633Z,18.10
2019-04-04T18:08:27.021Z,18.00
2019-04-04T18:10:57.355Z,17.90
2019-04-04T18:13:27.746Z,17.90
2019-04-04T18:15:58.098Z,17.80
2019-04-04T18:18:28.461Z,17.80
2019-04-04T18:20:58.816Z,17.80
2019-04-04T18:23:29.261Z,17.80
2019-04-04T18:25:59.565Z,17.70
2019-04-04T18:28:29.961Z,17.60
2019-04-04T18:31:00.362Z,17.60
2019-04-04T18:33:30.894Z,17.70
2019-04-04T18:36:01.304Z,17.60
2019-04-04T18:38:32.095Z,17.60
2019-04-04T18:41:02.910Z,17.50
2019-04-04T18:43:33.435Z,17.40
2019-04-04T18:46:03.783Z,17.40
2019-04-04T18:48:35.327Z,17.40
2019-04-04T18:51:05.770Z,17.40
2019-04-04T18:53:36.124Z,17.30
2019-04-04T18:56:07.420Z,17.30
2019-04-04T18:58:37.757Z,17.20
2019-04-04T19:01:08.347Z,17.20
2019-04-04T19:03:38.765Z,17.20
2019-04-04T19:06:09.097Z,17.10
2019-04-04T19:08:39.496Z,17.10
2019-04-04T19:11:09.824Z,17.00
2019-04-04T19:13:44.488Z,16.90
2019-04-04T19:16:12.232Z,16.90
2019-04-04T19:18:42.645Z,16.80
2019-04-04T19:21:12.981Z,16.80
2019-04-04T19:23:49.243Z,16.80
2019-04-04T19:26:15.348Z,16.80
2019-04-04T19:28:45.755Z,16.70
2019-04-04T19:31:17.063Z,16.70
2019-04-04T19:33:47.617Z,16.60
2019-04-04T19:36:17.947Z,16.60
2019-04-04T19:38:48.304Z,16.50
2019-04-04T19:41:18.613Z,16.60
2019-04-04T19:43:49.012Z,16.50
2019-04-04T19:46:19.431Z,16.50
2019-04-04T19:48:49.858Z,16.50
2019-04-04T19:51:20.211Z,16.50
2019-04-04T19:53:50.592Z,16.40
2019-04-04T19:56:20.921Z,16.40
2019-04-04T19:58:51.326Z,16.30
2019-04-04T20:01:21.768Z,16.20
2019-04-04T20:03:52.152Z,16.20
2019-04-04T20:06:22.552Z,16.20
2019-04-04T20:08:53.734Z,16.20
2019-04-04T20:11:24.204Z,16.10
2019-04-04T20:13:54.587Z,16.10
2019-04-04T20:16:25.029Z,16.10
2019-04-04T20:18:55.408Z,16.10
2019-04-04T20:21:25.718Z,16.10
2019-04-04T20:23:56.107Z,16.00
2019-04-04T20:26:26.437Z,15.90
2019-04-04T20:28:57.806Z,15.90
2019-04-04T20:31:28.097Z,15.90
2019-04-04T20:34:01.870Z,15.80
2019-04-04T20:36:30.422Z,15.80
2019-04-04T20:39:00.794Z,15.80
2019-04-04T20:41:31.909Z,15.80
2019-04-04T20:44:02.248Z,15.80
2019-04-04T20:46:32.557Z,15.80
2019-04-04T20:49:02.903Z,15.80
2019-04-04T20:51:33.207Z,15.70
2019-04-04T20:54:03.563Z,15.60
2019-04-04T20:56:33.880Z,15.60
2019-04-04T20:59:04.423Z,15.50
2019-04-04T21:01:34.734Z,15.50
2019-04-04T21:04:05.098Z,15.50
2019-04-04T21:06:35.419Z,15.50
2019-04-04T21:09:07.929Z,15.40
2019-04-04T21:11:38.262Z,15.40
2019-04-04T21:14:08.730Z,15.30
2019-04-04T21:16:39.031Z,15.30
2019-04-04T21:19:09.365Z,15.30
2019-04-04T21:21:40.698Z,15.20
2019-04-04T21:24:11.049Z,15.20
2019-04-04T21:26:41.334Z,15.20
2019-04-04T21:29:11.666Z,15.20
2019-04-04T21:31:41.989Z,15.20
2019-04-04T21:34:12.336Z,15.20
2019-04-04T21:36:42.673Z,15.20
2019-04-04T21:39:13.045Z,15.10
2019-04-04T21:41:43.347Z,15.10
2019-04-04T21:44:13.680Z,15.10
2019-04-04T21:46:44.011Z,15.00
2019-04-04T21:49:14.466Z,15.00
2019-04-04T21:51:44.789Z,15.00
2019-04-04T21:54:15.151Z,15.00
2019-04-04T21:56:45.473Z,15.00
2019-04-04T21:59:15.812Z,14.90
2019-04-04T22:01:46.226Z,14.80
2019-04-04T22:04:16.594Z,14.80
2019-04-04T22:06:46.948Z,14.80
2019-04-04T22:09:18.703Z,14.80
2019-04-04T22:11:49.023Z,14.80
2019-04-04T22:14:22.025Z,14.80
2019-04-04T22:16:51.290Z,14.70
2019-04-04T22:19:21.661Z,14.70
2019-04-04T22:21:51.971Z,14.60
2019-04-04T22:24:23.304Z,14.70
2019-04-04T22:26:53.638Z,14.60
2019-04-04T22:29:23.986Z,14.60
2019-04-04T22:31:54.373Z,14.60
2019-04-04T22:34:25.730Z,14.70
2019-04-04T22:36:56.065Z,14.60
2019-04-04T22:39:26.426Z,14.50
2019-04-04T22:41:56.776Z,14.50
2019-04-04T22:44:34.690Z,14.40
2019-04-04T22:46:59.095Z,14.40
2019-04-04T22:49:29.473Z,14.40
2019-04-04T22:51:59.801Z,14.40
2019-04-04T22:54:30.157Z,14.40
2019-04-04T22:57:00.501Z,14.40
2019-04-04T22:59:30.877Z,14.30
2019-04-04T23:02:01.205Z,14.30
2019-04-04T23:04:31.556Z,14.30
2019-04-04T23:07:01.951Z,14.30
2019-04-04T23:09:32.284Z,14.30
2019-04-04T23:12:02.588Z,14.40
2019-04-04T23:14:32.949Z,14.40
2019-04-04T23:17:03.301Z,14.40
2019-04-04T23:19:33.662Z,14.40
2019-04-04T23:22:03.954Z,14.40
2019-04-04T23:24:34.315Z,14.30
2019-04-04T23:27:04.618Z,14.30
2019-04-04T23:29:34.989Z,14.30
2019-04-04T23:32:05.296Z,14.30
2019-04-04T23:34:35.650Z,14.30
2019-04-04T23:37:06.034Z,14.30
2019-04-04T23:39:36.355Z,14.30
2019-04-04T23:42:06.779Z,14.20
2019-04-04T23:44:37.131Z,14.20
2019-04-04T23:47:07.447Z,14.20
2019-04-04T23:49:37.796Z,13.90
2019-04-04T23:52:08.101Z,13.60
2019-04-04T23:54:38.515Z,13.50
2019-04-04T23:57:08.857Z,13.60
2019-04-04T23:59:39.222Z,13.40
